Terminal Aerodrome Forecast
Issued by NWS

Home | Current Version | Previous Version | Text Only | Print | Product List | Glossary On
Versions: 1 2 3 4 5 6 7 8 9 10 11 12 13 14 15 16 17 18
090
FTUS45 KTFX 290521
TAFLWT
TAF
KLWT 290521Z 2906/3006 28010KT P6SM SCT060 BKN100
      TEMPO 2909/2912 -SHRA BKN060
     FM291200 31011KT P6SM SCT040 BKN080 PROB30 2915/2918 -SHRA
      BKN050
     FM292100 33009KT P6SM SCT070 BKN120=

USA.gov is the U.S. government's official web portal to all federal, state and local government web resources and services.